Time;durP1;ratioP1;P1;durP2;ratioP2;P2;SDS_P1;SDS_P2;PMS_P1;PMS_P2;Temp;Humidity;BMP_temperature;BMP_pressure;BME280_temperature;BME280_humidity;BME280_pressure;Samples;Min_cycle;Max_cycle;Signal;HPM_P1;HPM_P2
2024/01/27 00:02:17;;;;;;;18.00;7.45;;;;;;;4.05;100.00;101686.38;5049759;28;20046;-68
2024/01/27 00:04:42;;;;;;;13.60;7.10;;;;;;;4.09;100.00;101678.44;5039222;28;20030;-69
2024/01/27 00:07:08;;;;;;;16.02;7.68;;;;;;;4.15;100.00;101675.56;5046151;28;20039;-69
2024/01/27 00:09:34;;;;;;;11.10;5.70;;;;;;;4.20;100.00;101681.34;5050524;28;20033;-68
2024/01/27 00:11:59;;;;;;;13.55;6.28;;;;;;;4.22;100.00;101684.69;5044675;28;20037;-68
2024/01/27 00:14:25;;;;;;;21.27;7.15;;;;;;;4.17;100.00;101689.22;5034956;28;20144;-68
2024/01/27 00:16:50;;;;;;;12.23;6.68;;;;;;;4.06;100.00;101678.59;5018379;28;20033;-68
2024/01/27 00:19:15;;;;;;;11.88;5.53;;;;;;;4.00;100.00;101692.59;5023361;28;20353;-69
2024/01/27 00:21:41;;;;;;;12.65;6.00;;;;;;;3.97;100.00;101694.47;5034953;28;20092;-68
2024/01/27 00:24:07;;;;;;;12.10;6.93;;;;;;;3.95;100.00;101691.16;5038813;28;20086;-68
2024/01/27 00:26:32;;;;;;;14.23;6.53;;;;;;;3.95;100.00;101693.72;5026601;28;20137;-68
2024/01/27 00:28:57;;;;;;;12.10;6.03;;;;;;;4.03;100.00;101695.94;5018536;28;20033;-69
2024/01/27 00:31:23;;;;;;;12.60;5.85;;;;;;;4.04;100.00;101688.13;5017475;28;20057;-68
2024/01/27 00:33:48;;;;;;;9.88;5.38;;;;;;;3.98;100.00;101685.84;5017785;28;20033;-68
2024/01/27 00:36:14;;;;;;;13.85;5.25;;;;;;;3.88;100.00;101693.16;5021521;28;20448;-68
2024/01/27 00:38:39;;;;;;;13.70;7.05;;;;;;;3.88;100.00;101679.44;5022187;28;20048;-69
2024/01/27 00:41:05;;;;;;;9.00;5.13;;;;;;;3.86;100.00;101686.41;5020524;28;20120;-68
2024/01/27 00:43:31;;;;;;;12.18;5.20;;;;;;;3.75;100.00;101686.09;5017248;28;20033;-68
2024/01/27 00:45:56;;;;;;;14.20;7.07;;;;;;;3.60;100.00;101688.47;5022748;28;20029;-69
2024/01/27 00:48:22;;;;;;;22.95;10.55;;;;;;;3.36;100.00;101681.84;5017878;28;20661;-69
2024/01/27 00:50:48;;;;;;;23.88;9.25;;;;;;;3.12;100.00;101686.34;5020483;28;20033;-68
2024/01/27 00:53:13;;;;;;;25.85;11.07;;;;;;;3.13;100.00;101690.59;5020128;28;20746;-68
2024/01/27 00:55:39;;;;;;;32.70;14.38;;;;;;;3.03;100.00;101697.06;5020965;28;20041;-68
2024/01/27 00:58:04;;;;;;;38.15;15.73;;;;;;;2.85;100.00;101693.50;5017724;28;20074;-68
2024/01/27 01:00:30;;;;;;;33.45;14.68;;;;;;;2.76;100.00;101696.50;5017145;28;20629;-67
2024/01/27 01:02:55;;;;;;;26.48;12.65;;;;;;;2.79;100.00;101706.66;5020015;28;20114;-68
2024/01/27 01:05:20;;;;;;;27.45;14.63;;;;;;;2.71;100.00;101698.44;5022344;28;20161;-69
2024/01/27 01:07:46;;;;;;;34.00;15.38;;;;;;;2.57;100.00;101695.59;5028975;28;20089;-67
2024/01/27 01:10:11;;;;;;;22.73;9.60;;;;;;;2.70;100.00;101704.47;5042817;28;20043;-68
2024/01/27 01:12:37;;;;;;;22.58;9.43;;;;;;;2.93;100.00;101695.78;5055158;28;20029;-67
2024/01/27 01:15:02;;;;;;;18.83;8.07;;;;;;;3.02;100.00;101700.53;5047351;28;20087;-67
2024/01/27 01:17:28;;;;;;;11.90;4.50;;;;;;;3.24;100.00;101708.16;5048280;28;20033;-67
2024/01/27 01:19:53;;;;;;;12.77;5.32;;;;;;;3.33;100.00;101698.28;5047171;28;20029;-68
2024/01/27 01:22:19;;;;;;;17.58;9.30;;;;;;;3.23;100.00;101716.78;5054494;28;20036;-67
2024/01/27 01:24:44;;;;;;;14.80;7.57;;;;;;;3.18;100.00;101703.28;5034968;28;20033;-68
2024/01/27 01:27:09;;;;;;;11.15;5.68;;;;;;;3.33;100.00;101703.41;5027757;28;20423;-67
2024/01/27 01:29:35;;;;;;;12.55;4.88;;;;;;;3.38;100.00;101695.50;5022223;28;20040;-68
2024/01/27 01:32:02;;;;;;;12.35;5.40;;;;;;;3.42;100.00;101694.44;5027386;28;20102;-67
2024/01/27 01:34:28;;;;;;;8.38;4.50;;;;;;;3.49;100.00;101703.56;5026225;28;20041;-68
2024/01/27 01:36:54;;;;;;;9.20;4.82;;;;;;;3.50;100.00;101705.25;5026222;28;20381;-67
2024/01/27 01:39:19;;;;;;;9.00;4.60;;;;;;;3.47;100.00;101689.09;5030733;28;20037;-68
2024/01/27 01:41:45;;;;;;;10.13;5.65;;;;;;;3.49;100.00;101716.47;5025003;28;20063;-68
2024/01/27 01:44:10;;;;;;;8.80;5.60;;;;;;;3.41;100.00;101700.50;5021482;28;20035;-68
2024/01/27 01:46:36;;;;;;;9.25;4.70;;;;;;;3.34;100.00;101696.53;5022359;28;20029;-68
2024/01/27 01:49:02;;;;;;;7.55;4.30;;;;;;;3.33;100.00;101703.41;5030677;28;20128;-67
2024/01/27 01:51:27;;;;;;;9.48;4.97;;;;;;;3.46;100.00;101702.88;5052708;28;20674;-67
2024/01/27 01:53:57;;;;;;;12.23;4.70;;;;;;;3.50;100.00;101702.69;5024719;28;20177;-67
2024/01/27 01:56:23;;;;;;;10.48;3.97;;;;;;;3.51;100.00;101700.94;5027625;28;20048;-68
2024/01/27 01:58:49;;;;;;;6.13;3.30;;;;;;;3.53;100.00;101712.84;5029479;28;20086;-67
2024/01/27 02:01:15;;;;;;;13.98;4.03;;;;;;;3.59;100.00;101706.59;5029877;28;20037;-68
2024/01/27 02:03:51;;;;;;;10.68;6.00;;;;;;;3.58;100.00;101710.06;5031430;28;20048;-68
2024/01/27 02:06:17;;;;;;;16.92;7.40;;;;;;;3.39;100.00;101720.34;5027385;28;20491;-67
2024/01/27 02:08:42;;;;;;;14.38;7.18;;;;;;;3.20;100.00;101724.66;5039632;28;20116;-69
2024/01/27 02:11:07;;;;;;;11.15;5.97;;;;;;;3.23;100.00;101717.63;5028338;28;20033;-68
2024/01/27 02:13:33;;;;;;;16.17;6.80;;;;;;;3.22;100.00;101717.69;5033693;28;20036;-67
2024/01/27 02:15:58;;;;;;;14.77;6.97;;;;;;;3.12;100.00;101713.84;5023786;28;20029;-67
2024/01/27 02:18:24;;;;;;;9.52;4.93;;;;;;;3.19;100.00;101717.84;5025578;28;20048;-68
2024/01/27 02:20:49;;;;;;;9.45;3.67;;;;;;;3.25;100.00;101712.41;5025233;28;20037;-67
2024/01/27 02:23:15;;;;;;;6.40;2.65;;;;;;;3.35;100.00;101703.34;5034233;28;20158;-67
2024/01/27 02:25:40;;;;;;;6.10;2.58;;;;;;;3.46;100.00;101702.88;5023575;28;20025;-67
2024/01/27 02:28:05;;;;;;;6.05;2.72;;;;;;;3.49;100.00;101710.47;5029521;28;20033;-68
2024/01/27 02:30:31;;;;;;;6.80;3.40;;;;;;;3.46;100.00;101706.28;5023717;28;20146;-67
2024/01/27 02:33:00;;;;;;;8.50;3.65;;;;;;;3.35;100.00;101705.94;5025643;28;20048;-67
2024/01/27 02:35:26;;;;;;;6.95;3.20;;;;;;;3.26;100.00;101714.94;5024710;28;20167;-67
2024/01/27 02:37:51;;;;;;;5.40;3.28;;;;;;;3.23;100.00;101712.47;5022259;28;20073;-68
2024/01/27 02:40:17;;;;;;;8.40;3.50;;;;;;;3.24;100.00;101713.31;5023326;28;20475;-67
2024/01/27 02:42:43;;;;;;;5.68;3.20;;;;;;;3.22;100.00;101708.22;5024167;28;20043;-67
2024/01/27 02:45:10;;;;;;;5.78;2.35;;;;;;;3.28;100.00;101701.97;5032932;28;20024;-67
2024/01/27 02:47:35;;;;;;;8.40;2.53;;;;;;;3.31;100.00;101696.66;5023630;28;20044;-68
2024/01/27 02:50:00;;;;;;;5.72;2.90;;;;;;;3.35;100.00;101703.34;5025623;28;20033;-68
2024/01/27 02:52:27;;;;;;;6.20;2.22;;;;;;;3.37;100.00;101701.53;5028922;28;20040;-67
2024/01/27 02:54:53;;;;;;;10.20;2.53;;;;;;;3.41;100.00;101697.94;5025758;28;20041;-68
2024/01/27 02:57:19;;;;;;;6.00;1.83;;;;;;;3.41;100.00;101694.50;5021877;28;20051;-68
2024/01/27 02:59:48;;;;;;;3.97;2.30;;;;;;;3.49;100.00;101698.44;5038999;28;20033;-67
2024/01/27 03:02:13;;;;;;;4.15;1.95;;;;;;;3.56;100.00;101698.97;5023612;28;20063;-68
2024/01/27 03:04:39;;;;;;;6.43;2.00;;;;;;;3.51;100.00;101691.47;5024732;28;20029;-68
2024/01/27 03:07:04;;;;;;;4.30;2.22;;;;;;;3.47;100.00;101699.41;5030523;28;20041;-68
2024/01/27 03:09:30;;;;;;;7.38;2.42;;;;;;;3.42;100.00;101699.59;5032961;28;20121;-68
2024/01/27 03:11:56;;;;;;;6.15;2.13;;;;;;;3.38;100.00;101703.22;5025948;28;20037;-67
2024/01/27 03:14:22;;;;;;;6.78;2.78;;;;;;;3.38;100.00;101707.53;5036317;28;20041;-68
2024/01/27 03:16:47;;;;;;;5.55;2.85;;;;;;;3.38;100.00;101712.69;5023875;28;20035;-69
2024/01/27 03:19:13;;;;;;;2.97;1.80;;;;;;;3.40;100.00;101714.28;5024235;28;20036;-69
2024/01/27 03:21:38;;;;;;;8.18;1.90;;;;;;;3.43;100.00;101714.16;5041905;28;20077;-68
2024/01/27 03:24:04;;;;;;;6.07;2.22;;;;;;;3.45;100.00;101716.66;5032899;28;20055;-68
2024/01/27 03:26:29;;;;;;;3.38;1.83;;;;;;;3.47;100.00;101712.28;5025516;28;20194;-67
2024/01/27 03:28:55;;;;;;;5.78;2.35;;;;;;;3.49;100.00;101713.88;5023447;28;20041;-68
2024/01/27 03:31:20;;;;;;;6.03;1.73;;;;;;;3.39;100.00;101727.25;5027163;28;20049;-68
2024/01/27 03:33:46;;;;;;;6.28;2.10;;;;;;;3.38;100.00;101731.56;5022438;28;20037;-68
2024/01/27 03:36:12;;;;;;;7.50;2.10;;;;;;;3.32;100.00;101726.66;5043063;28;20836;-67
2024/01/27 03:38:40;;;;;;;7.07;1.95;;;;;;;3.28;100.00;101732.88;5021223;28;20076;-68
2024/01/27 03:41:06;;;;;;;5.60;2.30;;;;;;;3.26;100.00;101732.94;5022912;28;20041;-67
2024/01/27 03:43:33;;;;;;;5.82;2.42;;;;;;;3.24;100.00;101749.38;5022023;28;20071;-68
2024/01/27 03:45:59;;;;;;;4.85;2.05;;;;;;;3.31;100.00;101751.59;5027732;28;20048;-67
2024/01/27 03:48:24;;;;;;;3.95;1.92;;;;;;;3.30;100.00;101749.13;5023665;28;20030;-68
2024/01/27 03:50:50;;;;;;;5.07;2.38;;;;;;;3.26;100.00;101745.84;5023993;28;20040;-68
2024/01/27 03:53:15;;;;;;;4.00;1.83;;;;;;;3.30;100.00;101743.97;5032203;28;20471;-68
2024/01/27 03:55:40;;;;;;;6.20;2.00;;;;;;;3.30;100.00;101749.13;5025922;28;20029;-68
2024/01/27 03:58:06;;;;;;;4.00;1.58;;;;;;;3.29;100.00;101742.28;5026845;28;20056;-68
2024/01/27 04:00:33;;;;;;;5.03;2.30;;;;;;;3.28;100.00;101743.19;5032559;28;20021;-68
2024/01/27 04:03:02;;;;;;;2.95;1.70;;;;;;;3.25;100.00;101731.28;5022339;28;20469;-68
2024/01/27 04:05:30;;;;;;;4.72;2.00;;;;;;;3.25;100.00;101733.03;5029789;28;20045;-68
2024/01/27 04:07:56;;;;;;;3.20;1.17;;;;;;;3.29;100.00;101732.00;5023318;28;20510;-68
2024/01/27 04:10:23;;;;;;;4.47;1.85;;;;;;;3.29;100.00;101732.00;5026400;28;20044;-68
2024/01/27 04:12:49;;;;;;;3.08;1.65;;;;;;;3.07;100.00;101733.81;5020407;28;20048;-67
2024/01/27 04:15:14;;;;;;;5.70;3.10;;;;;;;2.71;100.00;101742.19;5025814;28;20460;-67
2024/01/27 04:17:40;;;;;;;9.25;2.22;;;;;;;2.60;100.00;101741.78;5028722;28;20065;-68
2024/01/27 04:20:07;;;;;;;4.57;1.92;;;;;;;2.60;100.00;101740.03;5023097;28;20037;-68
2024/01/27 04:22:37;;;;;;;6.32;1.95;;;;;;;2.71;100.00;101742.19;5028214;28;20036;-67
2024/01/27 04:25:03;;;;;;;3.63;1.73;;;;;;;2.77;100.00;101739.34;5033023;28;20032;-67
2024/01/27 04:27:29;;;;;;;5.43;1.80;;;;;;;2.69;100.00;101741.41;5020430;28;20036;-68
2024/01/27 04:29:54;;;;;;;6.05;1.70;;;;;;;2.82;100.00;101740.00;5021403;28;20090;-67
2024/01/27 04:32:21;;;;;;;4.13;1.88;;;;;;;2.97;100.00;101741.91;5026284;28;20063;-68
2024/01/27 04:34:47;;;;;;;2.28;1.20;;;;;;;3.08;100.00;101744.03;5020468;28;20029;-67
2024/01/27 04:37:12;;;;;;;3.25;1.55;;;;;;;3.13;100.00;101749.84;5021982;28;20029;-67
2024/01/27 04:39:38;;;;;;;4.47;1.52;;;;;;;3.08;100.00;101743.19;5018214;28;20037;-67
2024/01/27 04:42:06;;;;;;;3.40;1.50;;;;;;;3.05;100.00;101743.34;5019646;28;20670;-68
2024/01/27 04:44:31;;;;;;;5.80;1.63;;;;;;;3.05;100.00;101748.47;5022408;28;20462;-66
2024/01/27 04:46:57;;;;;;;6.85;1.30;;;;;;;3.12;100.00;101752.47;5024777;28;20117;-67
2024/01/27 04:49:22;;;;;;;4.65;3.05;;;;;;;3.02;100.00;101761.47;5017897;28;20355;-67
2024/01/27 04:51:48;;;;;;;8.38;4.20;;;;;;;2.59;100.00;101758.94;5018726;28;20041;-67
2024/01/27 04:54:13;;;;;;;11.73;5.55;;;;;;;2.35;100.00;101756.53;5029760;28;20079;-67
2024/01/27 04:56:39;;;;;;;8.18;4.55;;;;;;;2.30;100.00;101759.28;5020564;28;20499;-67
2024/01/27 04:59:04;;;;;;;8.95;6.13;;;;;;;2.20;100.00;101765.69;5029935;28;21000;-67
2024/01/27 05:01:30;;;;;;;13.00;5.95;;;;;;;2.11;100.00;101773.75;5027401;28;20558;-66
2024/01/27 05:03:55;;;;;;;14.73;5.57;;;;;;;1.90;100.00;101759.97;5024737;28;20047;-67
2024/01/27 05:06:21;;;;;;;10.48;5.38;;;;;;;1.85;100.00;101761.91;5032685;28;20116;-67
2024/01/27 05:08:46;;;;;;;13.57;6.28;;;;;;;1.91;100.00;101757.34;5032526;28;25867;-66
2024/01/27 05:11:12;;;;;;;13.48;5.75;;;;;;;1.88;100.00;101761.78;5040009;28;20063;-66
2024/01/27 05:13:39;;;;;;;14.23;7.18;;;;;;;1.79;100.00;101768.09;5041786;28;20031;-66
2024/01/27 05:16:05;;;;;;;16.48;6.50;;;;;;;1.67;100.00;101773.69;5048012;28;20037;-67
2024/01/27 05:18:31;;;;;;;14.10;7.30;;;;;;;1.55;100.00;101763.84;5046008;28;20072;-67
2024/01/27 05:20:56;;;;;;;18.80;7.97;;;;;;;1.51;100.00;101773.38;5046925;28;20025;-66
2024/01/27 05:23:23;;;;;;;10.55;6.25;;;;;;;1.67;100.00;101774.53;5043272;28;20036;-68
2024/01/27 05:25:48;;;;;;;10.52;7.35;;;;;;;1.66;100.00;101772.84;5047012;28;20079;-68
2024/01/27 05:28:14;;;;;;;12.10;5.85;;;;;;;1.54;100.00;101775.84;5046862;28;20415;-68
2024/01/27 05:30:39;;;;;;;10.32;3.97;;;;;;;1.65;100.00;101781.44;5047185;28;20475;-68
2024/01/27 05:33:05;;;;;;;6.95;3.13;;;;;;;2.04;100.00;101778.28;5046987;28;20468;-68
2024/01/27 05:35:30;;;;;;;5.70;2.13;;;;;;;2.37;100.00;101785.59;5047745;28;20048;-68
2024/01/27 05:37:56;;;;;;;4.22;1.73;;;;;;;2.51;100.00;101793.59;5043029;28;20033;-68
2024/01/27 05:40:21;;;;;;;6.68;1.27;;;;;;;2.55;100.00;101790.00;5037925;28;20041;-68
2024/01/27 05:42:48;;;;;;;4.57;1.90;;;;;;;2.60;100.00;101793.25;5047314;28;20102;-68
2024/01/27 05:45:14;;;;;;;2.88;1.48;;;;;;;2.61;100.00;101795.75;5043898;28;20213;-68
2024/01/27 05:47:39;;;;;;;4.78;1.40;;;;;;;2.63;100.00;101798.28;5052083;28;20064;-67
2024/01/27 05:50:07;;;;;;;6.85;1.30;;;;;;;2.65;100.00;101801.63;5050796;28;20034;-68
2024/01/27 05:52:33;;;;;;;4.25;1.75;;;;;;;2.71;100.00;101803.94;5055748;28;20105;-68
2024/01/27 05:54:59;;;;;;;7.13;3.05;;;;;;;2.70;100.00;101815.13;5050229;28;20029;-68
2024/01/27 05:57:24;;;;;;;17.27;7.82;;;;;;;2.51;100.00;101821.91;5042129;28;20389;-68
2024/01/27 05:59:49;;;;;;;20.50;8.23;;;;;;;2.17;100.00;101828.34;5048649;28;20048;-67
2024/01/27 06:02:17;;;;;;;19.65;7.60;;;;;;;1.87;100.00;101832.91;5048271;28;20400;-67
2024/01/27 06:04:43;;;;;;;22.08;9.25;;;;;;;1.81;100.00;101828.00;5051624;28;20496;-67
2024/01/27 06:07:08;;;;;;;17.02;8.77;;;;;;;1.63;100.00;101829.47;5050508;28;20100;-67
2024/01/27 06:09:34;;;;;;;17.00;7.63;;;;;;;1.49;100.00;101841.94;5040230;28;20067;-67
2024/01/27 06:12:00;;;;;;;11.80;6.72;;;;;;;1.65;100.00;101847.41;5040202;28;20036;-68
2024/01/27 06:14:26;;;;;;;14.25;3.80;;;;;;;1.87;100.00;101842.34;5025903;28;20720;-68
2024/01/27 06:16:51;;;;;;;4.18;2.13;;;;;;;2.12;100.00;101848.25;5040602;28;20029;-68
2024/01/27 06:19:16;;;;;;;4.65;1.85;;;;;;;2.31;100.00;101848.41;5029939;28;20045;-67
2024/01/27 06:21:42;;;;;;;3.33;1.38;;;;;;;2.41;100.00;101843.72;5024680;28;20139;-67
2024/01/27 06:24:07;;;;;;;6.45;2.40;;;;;;;2.48;100.00;101847.75;5024336;28;20025;-67
2024/01/27 06:26:33;;;;;;;6.78;3.28;;;;;;;2.44;100.00;101854.75;5025201;28;20029;-67
2024/01/27 06:28:58;;;;;;;4.95;2.17;;;;;;;2.40;100.00;101855.75;5021821;28;20096;-68
2024/01/27 06:31:23;;;;;;;6.38;2.67;;;;;;;2.40;100.00;101848.03;5021655;28;20052;-68
2024/01/27 06:33:49;;;;;;;6.38;1.42;;;;;;;2.42;100.00;101843.66;5019808;28;20048;-68
2024/01/27 06:36:14;;;;;;;3.47;1.30;;;;;;;2.48;100.00;101852.88;5027959;28;20111;-67
2024/01/27 06:38:40;;;;;;;2.70;1.30;;;;;;;2.51;100.00;101852.78;5019913;28;20491;-67
2024/01/27 06:41:05;;;;;;;3.10;1.23;;;;;;;2.55;100.00;101851.75;5019981;28;20092;-69
2024/01/27 06:43:31;;;;;;;2.13;1.00;;;;;;;2.56;100.00;101858.59;5021145;28;20029;-68
2024/01/27 06:45:57;;;;;;;4.30;1.50;;;;;;;2.58;100.00;101855.06;5020704;28;20107;-67
2024/01/27 06:48:25;;;;;;;4.75;1.83;;;;;;;2.65;100.00;101871.94;5023210;28;20028;-69
2024/01/27 06:50:51;;;;;;;4.65;1.65;;;;;;;2.70;100.00;101866.63;5029761;28;20441;-68
2024/01/27 06:53:18;;;;;;;4.72;1.63;;;;;;;2.72;100.00;101869.13;5025917;28;20048;-67
2024/01/27 06:55:43;;;;;;;3.10;1.73;;;;;;;2.73;100.00;101887.09;5023249;28;20131;-68
2024/01/27 06:58:09;;;;;;;5.07;1.58;;;;;;;2.80;100.00;101887.69;5033217;28;20112;-68
2024/01/27 07:00:34;;;;;;;5.00;2.05;;;;;;;2.77;100.00;101885.22;5021640;28;20037;-69
2024/01/27 07:03:00;;;;;;;3.10;1.48;;;;;;;2.72;100.00;101882.84;5021658;28;20039;-67
2024/01/27 07:05:25;;;;;;;2.65;1.33;;;;;;;2.71;100.00;101886.31;5027992;28;20017;-68
2024/01/27 07:07:51;;;;;;;2.50;1.23;;;;;;;2.76;100.00;101892.13;5023558;28;20036;-68
2024/01/27 07:10:16;;;;;;;2.78;1.23;;;;;;;2.78;100.00;101910.91;5024978;28;20123;-68
2024/01/27 07:12:42;;;;;;;5.90;1.17;;;;;;;2.82;100.00;101916.78;5022776;28;20099;-68
2024/01/27 07:15:08;;;;;;;4.38;1.70;;;;;;;2.86;100.00;101923.44;5023108;28;20533;-68
2024/01/27 07:17:33;;;;;;;2.42;1.10;;;;;;;2.89;100.00;101929.31;5025940;28;20051;-68
2024/01/27 07:19:58;;;;;;;2.97;1.52;;;;;;;2.96;100.00;101927.34;5026414;28;20029;-68
2024/01/27 07:22:24;;;;;;;4.03;1.30;;;;;;;2.99;100.00;101922.91;5037281;28;20041;-67
2024/01/27 07:24:51;;;;;;;2.95;1.67;;;;;;;3.03;100.00;101921.06;5031407;28;20522;-68
2024/01/27 07:27:18;;;;;;;3.75;1.75;;;;;;;3.08;100.00;101931.19;5020988;28;20039;-68
2024/01/27 07:29:43;;;;;;;2.92;1.00;;;;;;;3.08;100.00;101936.34;5021656;28;20768;-68
2024/01/27 07:32:13;;;;;;;4.53;1.20;;;;;;;3.08;100.00;101944.06;5022676;28;20049;-69
2024/01/27 07:34:41;;;;;;;4.18;1.35;;;;;;;3.06;100.00;101931.25;5022776;28;20041;-68
2024/01/27 07:37:06;;;;;;;3.83;1.15;;;;;;;3.08;100.00;101931.19;5025735;28;20288;-68
2024/01/27 07:39:31;;;;;;;3.85;1.38;;;;;;;3.12;100.00;101943.03;5023217;28;20104;-68
2024/01/27 07:41:57;;;;;;;3.85;1.27;;;;;;;3.14;100.00;101956.69;5023885;28;20082;-68
2024/01/27 07:44:22;;;;;;;2.22;1.10;;;;;;;3.21;100.00;101961.56;5022804;28;20033;-69
2024/01/27 07:46:47;;;;;;;5.43;1.33;;;;;;;3.25;100.00;101955.38;5019225;28;20067;-69
2024/01/27 07:49:14;;;;;;;2.17;1.10;;;;;;;3.29;100.00;101963.81;5021476;28;20030;-69
2024/01/27 07:51:40;;;;;;;3.03;1.35;;;;;;;3.39;100.00;101975.41;5024072;28;20483;-68
2024/01/27 07:54:05;;;;;;;6.20;1.30;;;;;;;3.44;100.00;101972.66;5026495;28;20074;-69
2024/01/27 07:56:31;;;;;;;4.00;1.17;;;;;;;3.43;100.00;101969.25;5040089;28;20078;-68
2024/01/27 07:58:56;;;;;;;3.22;1.38;;;;;;;3.48;100.00;101969.06;5036320;28;20033;-67
2024/01/27 08:01:22;;;;;;;3.65;1.75;;;;;;;3.57;100.00;101979.81;5022955;28;20045;-68
2024/01/27 08:03:47;;;;;;;3.00;1.58;;;;;;;3.65;100.00;101975.19;5020506;28;20036;-67
2024/01/27 08:06:30;;;;;;;3.28;1.63;;;;;;;3.75;100.00;101982.56;5019821;28;21739;-68
2024/01/27 08:08:55;;;;;;;4.20;1.35;;;;;;;3.86;99.95;101990.66;5026608;28;20469;-67
2024/01/27 08:11:21;;;;;;;2.83;1.02;;;;;;;3.87;99.87;101990.59;5023258;28;20095;-67
2024/01/27 08:13:46;;;;;;;1.35;0.60;;;;;;;3.88;99.43;101989.69;5022259;28;20036;-69
2024/01/27 08:16:13;;;;;;;2.55;1.00;;;;;;;3.90;99.50;101992.19;5019400;28;20052;-68
2024/01/27 08:18:40;;;;;;;2.05;0.77;;;;;;;3.93;99.94;101994.66;5027258;28;20028;-68
2024/01/27 08:21:05;;;;;;;4.35;1.42;;;;;;;3.91;99.43;101984.41;5023754;28;20044;-68
2024/01/27 08:23:31;;;;;;;4.35;1.52;;;;;;;4.00;99.01;102001.22;5030992;28;20044;-68
2024/01/27 08:25:56;;;;;;;3.00;1.25;;;;;;;4.08;98.90;102006.91;5027728;28;20949;-69
2024/01/27 08:28:22;;;;;;;1.92;0.90;;;;;;;4.14;97.54;102004.06;5020708;28;20132;-67
2024/01/27 08:30:47;;;;;;;3.05;1.20;;;;;;;4.20;97.50;101996.06;5021113;28;20043;-67
2024/01/27 08:33:13;;;;;;;2.10;0.82;;;;;;;4.30;96.79;102006.81;5025849;28;20044;-68
2024/01/27 08:35:38;;;;;;;7.82;1.52;;;;;;;4.36;96.41;102006.53;5028146;28;20059;-68
2024/01/27 08:38:05;;;;;;;2.20;0.93;;;;;;;4.43;95.90;102009.69;5024662;28;20457;-68
2024/01/27 08:40:32;;;;;;;2.55;0.63;;;;;;;4.52;95.20;102011.88;5026583;28;20389;-69
2024/01/27 08:42:58;;;;;;;3.90;1.05;;;;;;;4.62;95.29;102015.72;5023875;28;20135;-69
2024/01/27 08:45:24;;;;;;;5.28;1.20;;;;;;;4.78;94.47;102021.84;5022901;28;20118;-69
2024/01/27 08:47:50;;;;;;;5.53;2.30;;;;;;;4.94;94.27;102014.25;5019865;28;20302;-68
2024/01/27 08:50:15;;;;;;;6.22;3.10;;;;;;;5.00;93.51;102011.38;5041149;28;20477;-69
2024/01/27 08:52:41;;;;;;;4.32;1.50;;;;;;;5.07;92.62;102015.38;5038811;28;20044;-69
2024/01/27 08:55:07;;;;;;;9.40;1.83;;;;;;;5.12;93.26;102009.97;5027028;28;20064;-69
2024/01/27 08:57:33;;;;;;;5.70;1.20;;;;;;;5.16;93.10;102016.69;5026550;28;20120;-69
2024/01/27 08:59:58;;;;;;;3.60;1.27;;;;;;;5.16;92.42;102004.59;5042873;28;20039;-68
2024/01/27 09:02:24;;;;;;;4.72;1.00;;;;;;;5.19;92.78;101995.88;5025460;28;20041;-69
2024/01/27 09:04:49;;;;;;;2.70;0.73;;;;;;;5.37;91.66;101996.72;5027677;28;20044;-69
2024/01/27 09:07:15;;;;;;;5.65;1.42;;;;;;;5.49;91.43;102007.31;5039899;28;20369;-69
2024/01/27 09:09:41;;;;;;;4.55;1.02;;;;;;;5.57;90.78;102009.53;5027063;28;20163;-69
2024/01/27 09:12:06;;;;;;;3.25;0.98;;;;;;;5.64;89.43;102013.50;5042991;28;20032;-69
2024/01/27 09:14:33;;;;;;;2.88;1.20;;;;;;;5.74;89.56;102012.09;5044599;28;20036;-70
2024/01/27 09:17:00;;;;;;;4.05;1.13;;;;;;;5.75;89.19;102020.69;5044223;28;20163;-69
2024/01/27 09:19:26;;;;;;;3.35;1.40;;;;;;;5.84;88.85;102012.47;5047816;28;20440;-69
2024/01/27 09:21:51;;;;;;;3.28;1.20;;;;;;;5.93;88.18;102019.81;5043451;28;20037;-68
2024/01/27 09:24:17;;;;;;;3.58;1.10;;;;;;;6.01;88.18;102027.19;5046401;28;20402;-68
2024/01/27 09:26:42;;;;;;;6.57;2.08;;;;;;;6.06;87.93;102014.88;5042378;28;20035;-69
2024/01/27 09:29:09;;;;;;;8.00;3.15;;;;;;;6.21;88.37;102017.50;5045534;28;20036;-69
2024/01/27 09:31:34;;;;;;;12.00;5.30;;;;;;;6.35;88.83;102018.53;5043651;28;20041;-68
2024/01/27 09:34:00;;;;;;;11.10;5.07;;;;;;;6.23;90.24;102026.00;5040495;28;20056;-69
2024/01/27 09:36:26;;;;;;;14.65;6.10;;;;;;;6.24;91.31;102021.69;5051043;28;20090;-68
2024/01/27 09:38:52;;;;;;;13.05;6.00;;;;;;;6.26;91.58;102025.84;5044327;28;20043;-68
2024/01/27 09:41:18;;;;;;;9.40;5.65;;;;;;;6.32;91.90;102035.91;5049668;28;20051;-68
2024/01/27 09:43:45;;;;;;;12.60;6.93;;;;;;;6.44;92.06;102041.38;5051165;28;20037;-69
2024/01/27 09:46:12;;;;;;;15.95;7.40;;;;;;;6.57;93.04;102039.81;5047064;28;20083;-68
2024/01/27 09:48:37;;;;;;;14.57;6.78;;;;;;;6.58;93.24;102052.69;5050397;28;20036;-69
2024/01/27 09:51:04;;;;;;;14.43;6.57;;;;;;;6.69;93.65;102057.28;5045417;28;20033;-68
2024/01/27 09:53:30;;;;;;;16.83;7.55;;;;;;;6.74;94.24;102057.88;5047705;28;20055;-68
2024/01/27 09:55:59;;;;;;;14.93;7.13;;;;;;;6.84;94.60;102058.22;5048939;28;20029;-68
2024/01/27 09:58:27;;;;;;;12.05;6.75;;;;;;;6.85;94.40;102067.69;5052368;28;20040;-68
2024/01/27 10:00:56;;;;;;;12.20;6.63;;;;;;;6.97;94.80;102067.88;5046842;28;20059;-68
2024/01/27 10:03:24;;;;;;;13.48;7.18;;;;;;;7.10;93.16;102065.41;5048936;28;20130;-68
2024/01/27 10:05:51;;;;;;;16.23;6.95;;;;;;;7.23;93.13;102065.59;5049509;28;20377;-68
2024/01/27 10:08:17;;;;;;;13.13;6.22;;;;;;;7.26;93.77;102068.03;5051709;28;20041;-68
2024/01/27 10:10:43;;;;;;;12.15;6.28;;;;;;;7.20;93.96;102060.56;5051709;28;20041;-68
2024/01/27 10:13:12;;;;;;;12.77;6.10;;;;;;;7.22;93.18;102069.94;5047384;28;20033;-68
2024/01/27 10:15:38;;;;;;;13.55;6.47;;;;;;;7.24;93.26;102077.63;5046467;28;20036;-69
2024/01/27 10:18:08;;;;;;;15.52;5.50;;;;;;;7.36;93.19;102064.00;5056170;28;20468;-68
2024/01/27 10:20:33;;;;;;;13.00;5.32;;;;;;;7.39;92.88;102061.25;5049179;28;20119;-68
2024/01/27 10:23:09;;;;;;;15.82;5.47;;;;;;;7.45;92.58;102060.91;5056463;28;20075;-68
2024/01/27 10:25:37;;;;;;;;;;;;;;;7.75;88.42;102060.09;5069239;28;20032;-68
2024/01/27 10:28:05;;;;;;;15.25;5.97;;;;;;;7.91;90.27;102058.28;5052042;28;19913;-68
2024/01/27 10:30:30;;;;;;;11.82;6.35;;;;;;;7.99;90.14;102062.13;5050666;28;20036;-69
2024/01/27 10:32:56;;;;;;;11.90;5.95;;;;;;;8.13;90.32;102052.66;5045641;28;20052;-68
2024/01/27 10:35:22;;;;;;;11.90;6.55;;;;;;;8.18;88.53;102059.25;5047150;28;20037;-69
2024/01/27 10:37:52;;;;;;;10.30;6.05;;;;;;;8.31;87.15;102052.41;5048927;28;20037;-69
2024/01/27 10:40:18;;;;;;;13.05;6.50;;;;;;;8.35;88.15;102055.72;5053852;28;20079;-68
2024/01/27 10:42:44;;;;;;;10.02;4.85;;;;;;;8.24;89.97;102051.13;5049633;28;20053;-64
2024/01/27 10:45:11;;;;;;;11.00;5.55;;;;;;;8.24;89.78;102048.50;5047286;28;20531;-63
2024/01/27 10:47:38;;;;;;;11.85;4.82;;;;;;;8.38;89.83;102050.31;5050872;28;20032;-64
2024/01/27 10:50:08;;;;;;;9.60;4.82;;;;;;;8.37;89.22;102046.06;5043838;28;20068;-64
2024/01/27 10:52:42;;;;;;;9.85;5.07;;;;;;;8.38;88.96;102050.31;5044198;28;20032;-64
2024/01/27 10:55:10;;;;;;;7.95;3.92;;;;;;;8.32;89.72;102048.94;5050529;28;20037;-64
2024/01/27 10:57:37;;;;;;;9.65;4.00;;;;;;;8.54;88.72;102055.41;5051257;28;20400;-64
2024/01/27 11:00:06;;;;;;;9.57;4.68;;;;;;;8.84;87.10;102055.31;5051293;28;20029;-64
2024/01/27 11:02:34;;;;;;;9.93;4.78;;;;;;;8.98;85.68;102056.13;5051375;28;20033;-64
2024/01/27 11:05:04;;;;;;;13.35;4.38;;;;;;;8.87;85.75;102050.78;5054133;28;20520;-64
2024/01/27 11:07:33;;;;;;;12.95;4.43;;;;;;;8.74;88.01;102060.25;5047712;28;20045;-64
2024/01/27 11:09:59;;;;;;;16.23;5.00;;;;;;;8.81;88.17;102053.75;5044400;28;20063;-64
2024/01/27 11:12:25;;;;;;;10.23;4.88;;;;;;;8.91;87.72;102049.66;5047177;28;20037;-64
2024/01/27 11:14:52;;;;;;;7.72;4.13;;;;;;;9.10;84.45;102051.09;5043321;28;20456;-64
2024/01/27 11:17:18;;;;;;;10.10;4.30;;;;;;;9.34;84.84;102048.72;5048414;28;20028;-65
2024/01/27 11:19:47;;;;;;;9.07;3.90;;;;;;;9.50;79.73;102052.81;5043591;28;20060;-64